Time;durP1;ratioP1;P1;durP2;ratioP2;P2;SDS_P1;SDS_P2;PMS_P1;PMS_P2;Temp;Humidity;BMP_temperature;BMP_pressure;BME280_temperature;BME280_humidity;BME280_pressure;Samples;Min_cycle;Max_cycle;Signal;HPM_P1;HPM_P2
2022/06/19 00:01:03;;;;;;;9.90;3.90;;;26.90;60.10;;;27.75;nan;99989.50;4951690;28;20628;-67
2022/06/19 00:03:36;;;;;;;10.67;3.70;;;26.80;60.10;;;27.76;nan;99980.41;4950718;28;20644;-66
2022/06/19 00:06:03;;;;;;;8.57;4.10;;;26.80;60.90;;;27.76;nan;99964.31;4944790;29;20667;-66
2022/06/19 00:08:30;;;;;;;7.27;4.27;;;26.80;60.20;;;27.70;nan;99959.91;4950734;28;20698;-66
2022/06/19 00:10:59;;;;;;;19.30;3.53;;;26.80;60.50;;;27.68;nan;99958.25;4952649;28;21207;-66
2022/06/19 00:13:26;;;;;;;9.40;3.87;;;26.80;61.00;;;27.66;nan;99938.94;4956269;28;20635;-64
2022/06/19 00:15:54;;;;;;;7.30;4.00;;;26.80;60.20;;;27.87;nan;99929.44;4973590;28;20663;-67
2022/06/19 00:18:22;;;;;;;7.33;3.63;;;27.00;59.40;;;28.06;nan;99914.00;4971718;28;20701;-64
2022/06/19 00:20:49;;;;;;;9.47;4.00;;;27.20;58.40;;;28.15;nan;99910.66;4973510;28;21262;-67
2022/06/19 00:23:16;;;;;;;10.83;3.80;;;27.30;57.80;;;28.25;nan;99908.16;4970436;28;20632;-66
2022/06/19 00:25:43;;;;;;;12.70;3.33;;;27.40;57.20;;;28.22;nan;99905.13;4968060;28;20660;-67
2022/06/19 00:28:11;;;;;;;9.60;3.83;;;27.30;57.40;;;28.22;nan;99900.59;4953490;28;20628;-65
2022/06/19 00:30:39;;;;;;;4.50;3.17;;;27.30;57.30;;;28.38;nan;99899.00;4954390;28;20631;-66
2022/06/19 00:33:06;;;;;;;16.37;4.13;;;27.50;57.20;;;28.56;nan;99901.41;4971698;28;20631;-66
2022/06/19 00:35:34;;;;;;;11.57;3.87;;;27.70;57.50;;;28.66;nan;99898.13;4970910;28;20666;-65
2022/06/19 00:38:01;;;;;;;19.93;4.73;;;27.80;57.40;;;28.64;nan;99894.88;4959208;28;21195;-66
2022/06/19 00:40:31;;;;;;;8.07;3.50;;;27.80;57.40;;;28.57;nan;99888.84;4952151;28;20678;-66
2022/06/19 00:42:59;;;;;;;10.60;3.80;;;27.60;57.40;;;28.52;nan;99894.91;4953303;28;21006;-66
2022/06/19 00:45:53;;;;;;;3.77;2.90;;;27.60;57.30;;;28.48;nan;99891.09;4952291;28;20690;-66
2022/06/19 00:48:32;;;;;;;9.60;4.37;;;27.60;56.90;;;28.51;nan;99890.63;4968503;28;20647;-65
2022/06/19 00:51:02;;;;;;;9.20;3.60;;;27.60;56.40;;;28.54;nan;99887.44;4936521;28;20636;-63
2022/06/19 00:53:42;;;;;;;6.70;3.60;;;27.70;56.30;;;28.49;nan;99887.38;4971080;28;20704;-66
2022/06/19 00:56:20;;;;;;;16.10;3.80;;;27.60;56.30;;;28.46;nan;99885.16;4969176;28;20673;-67
2022/06/19 00:58:49;;;;;;;14.30;3.67;;;27.50;56.30;;;28.37;nan;99878.56;4966305;28;21003;-66
2022/06/19 01:01:20;;;;;;;6.57;3.70;;;27.50;56.40;;;28.52;nan;99878.81;4959080;28;20646;-66
2022/06/19 01:03:57;;;;;;;10.23;3.47;;;27.60;56.00;;;28.65;nan;99880.38;4971057;28;20623;-66
2022/06/19 01:06:26;;;;;;;10.87;3.67;;;27.70;55.80;;;28.64;nan;99873.41;4959045;28;20726;-66
2022/06/19 01:08:55;;;;;;;8.40;4.30;;;27.70;55.70;;;28.66;nan;99874.78;4951032;28;21188;-67
2022/06/19 01:11:26;;;;;;;11.60;3.70;;;27.80;56.20;;;28.82;nan;99870.44;4944848;28;20643;-66
2022/06/19 01:13:53;;;;;;;7.83;3.57;;;27.90;56.40;;;28.85;nan;99861.91;4952777;28;20647;-66
2022/06/19 01:16:20;;;;;;;12.13;3.60;;;28.00;56.30;;;28.84;nan;99874.50;4952005;28;20701;-66
2022/06/19 01:18:48;;;;;;;10.73;3.93;;;28.00;56.40;;;28.71;nan;99872.16;4967914;28;20635;-66
2022/06/19 01:21:34;;;;;;;9.93;3.80;;;27.80;56.70;;;28.58;nan;99867.13;4969380;28;20635;-66
2022/06/19 01:24:17;;;;;;;12.33;3.90;;;27.60;57.10;;;28.56;nan;99868.44;4971086;28;21043;-66
2022/06/19 01:26:49;;;;;;;13.83;3.87;;;27.60;57.30;;;28.35;nan;99856.53;4970431;28;21211;-67
2022/06/19 01:29:19;;;;;;;12.60;4.37;;;27.40;57.70;;;28.26;nan;99860.72;4967074;28;20639;-66
2022/06/19 01:31:51;;;;;;;10.77;3.97;;;27.30;57.80;;;28.18;nan;99851.19;4970922;28;20653;-66
2022/06/19 01:34:36;;;;;;;10.53;3.30;;;27.20;57.80;;;28.07;nan;99856.59;4969431;28;20646;-66
2022/06/19 01:37:17;;;;;;;15.63;3.20;;;27.10;58.00;;;27.94;nan;99856.91;4968799;28;20662;-66
2022/06/19 01:39:50;;;;;;;6.73;3.50;;;27.00;58.30;;;27.87;nan;99856.22;4969239;28;21118;-68
2022/06/19 01:42:17;;;;;;;9.20;3.47;;;27.00;58.70;;;27.83;nan;99866.63;4963485;28;21007;-66
2022/06/19 01:44:45;;;;;;;11.53;3.40;;;26.90;59.00;;;27.66;nan;99865.78;4970418;28;20670;-67
2022/06/19 01:47:14;;;;;;;8.70;3.73;;;26.70;59.40;;;27.60;nan;99867.53;4969937;28;20618;-65
2022/06/19 01:49:47;;;;;;;11.70;3.90;;;26.60;59.60;;;27.56;nan;99855.66;4970068;28;20623;-67
2022/06/19 01:52:15;;;;;;;10.17;4.33;;;26.60;59.90;;;27.54;nan;99854.28;4965822;28;20618;-66
2022/06/19 01:54:49;;;;;;;13.37;3.50;;;26.60;60.30;;;27.47;nan;99859.75;4949742;28;20659;-65
2022/06/19 01:57:17;;;;;;;10.33;3.40;;;26.50;60.50;;;27.34;nan;99849.31;4970226;28;20625;-65
2022/06/19 01:59:45;;;;;;;13.30;4.10;;;26.40;60.80;;;27.18;nan;99849.22;4957371;28;20641;-68
2022/06/19 02:02:15;;;;;;;7.63;3.30;;;26.30;61.50;;;27.12;nan;99842.97;4956891;28;20631;-66
2022/06/19 02:04:44;;;;;;;8.30;3.90;;;26.20;61.50;;;26.94;nan;99839.63;4950150;28;20667;-66
2022/06/19 02:07:23;;;;;;;8.57;3.63;;;26.00;61.90;;;26.92;nan;99844.41;4946609;29;20640;-69
2022/06/19 02:09:51;;;;;;;6.37;3.70;;;26.00;61.80;;;26.78;nan;99850.00;4968772;28;20649;-69
2022/06/19 02:12:22;;;;;;;13.30;4.23;;;25.90;62.30;;;26.59;nan;99840.44;4969448;28;20615;-69
2022/06/19 02:14:50;;;;;;;13.57;3.90;;;25.70;63.50;;;26.48;nan;99838.56;4970171;28;20674;-68
2022/06/19 02:17:42;;;;;;;11.63;3.70;;;25.70;63.20;;;26.42;nan;99834.16;4962585;28;20636;-69
2022/06/19 02:20:10;;;;;;;6.97;3.63;;;25.60;63.30;;;26.29;nan;99838.91;4957031;28;20644;-70
2022/06/19 02:22:38;;;;;;;7.63;3.40;;;25.40;63.60;;;26.24;nan;99828.09;4968768;28;20646;-70
2022/06/19 02:25:06;;;;;;;9.50;3.80;;;25.40;63.70;;;26.14;nan;99840.16;4974077;28;21253;-68
2022/06/19 02:27:35;;;;;;;9.33;3.63;;;25.30;63.90;;;26.15;nan;99833.75;4960032;28;20670;-70
2022/06/19 02:30:05;;;;;;;8.70;3.70;;;25.30;64.00;;;26.05;nan;99833.47;4969139;28;20639;-71
2022/06/19 02:32:49;;;;;;;10.50;3.40;;;25.20;63.90;;;26.03;nan;99830.22;4971467;28;20635;-69
2022/06/19 02:35:23;;;;;;;8.87;4.00;;;25.20;64.00;;;25.99;nan;99829.06;4960088;28;20680;-68
2022/06/19 02:37:55;;;;;;;7.70;3.10;;;25.20;64.00;;;25.98;nan;99834.66;4955217;28;20651;-68
2022/06/19 02:40:49;;;;;;;5.57;3.00;;;25.20;63.90;;;26.04;nan;99825.69;4954215;29;20620;-69
2022/06/19 02:43:23;;;;;;;8.80;3.40;;;25.20;63.60;;;26.11;nan;99827.25;4981347;28;20642;-69
2022/06/19 02:45:50;;;;;;;6.47;3.30;;;25.20;63.00;;;26.21;nan;99831.22;4974642;28;20681;-68
2022/06/19 02:48:20;;;;;;;11.80;4.07;;;25.40;62.80;;;26.26;nan;99832.16;4967575;28;20631;-69
2022/06/19 02:50:47;;;;;;;9.57;3.73;;;25.40;62.60;;;26.39;nan;99828.44;4972532;28;20639;-69
2022/06/19 02:53:15;;;;;;;7.63;3.27;;;25.50;61.70;;;26.43;nan;99824.28;4973397;28;21171;-71
2022/06/19 02:55:42;;;;;;;12.33;4.10;;;25.60;61.40;;;26.50;nan;99814.25;4971969;28;20671;-68
2022/06/19 02:58:09;;;;;;;10.40;3.40;;;25.70;61.50;;;26.49;nan;99808.09;4973973;28;20634;-68
2022/06/19 03:00:38;;;;;;;10.43;3.40;;;25.70;61.30;;;26.49;nan;99818.78;4955429;28;20981;-69
2022/06/19 03:03:13;;;;;;;11.00;3.90;;;25.60;61.40;;;26.54;nan;99810.06;4954570;28;21066;-68
2022/06/19 03:05:40;;;;;;;7.37;3.57;;;25.70;61.30;;;26.58;nan;99811.22;4970032;28;20655;-68
2022/06/19 03:08:08;;;;;;;7.50;3.60;;;25.70;61.30;;;26.68;nan;99801.56;4954066;28;20628;-70
2022/06/19 03:10:36;;;;;;;11.07;3.60;;;25.80;60.70;;;26.67;nan;99799.94;4954275;28;20635;-69
2022/06/19 03:13:03;;;;;;;10.70;3.27;;;25.80;60.50;;;26.68;nan;99806.91;4934845;29;21071;-68
2022/06/19 03:15:31;;;;;;;9.07;3.50;;;25.80;60.60;;;26.70;nan;99807.50;4935346;29;20675;-68
2022/06/19 03:17:58;;;;;;;9.00;3.50;;;25.80;60.40;;;26.70;nan;99801.34;4934491;29;20625;-69
2022/06/19 03:20:27;;;;;;;13.47;3.33;;;25.80;60.40;;;26.72;nan;99804.59;4978970;28;20627;-70
2022/06/19 03:22:54;;;;;;;7.20;3.90;;;25.90;60.30;;;26.81;nan;99801.34;4974280;28;21198;-68
2022/06/19 03:25:22;;;;;;;7.77;3.00;;;25.90;60.30;;;26.75;nan;99804.97;4973682;28;21257;-68
2022/06/19 03:27:50;;;;;;;10.60;3.70;;;25.90;60.10;;;26.71;nan;99798.41;4958961;28;20651;-68
2022/06/19 03:30:19;;;;;;;10.60;3.73;;;25.90;60.30;;;26.81;nan;99792.53;4953879;28;20632;-69
2022/06/19 03:32:47;;;;;;;11.53;3.77;;;25.90;60.30;;;26.80;nan;99789.03;4964620;28;20664;-68
2022/06/19 03:35:16;;;;;;;12.23;4.27;;;25.90;60.50;;;26.76;nan;99789.72;4956834;28;20667;-68
2022/06/19 03:37:43;;;;;;;7.40;3.60;;;25.90;60.90;;;26.77;nan;99791.34;4952715;28;20624;-68
2022/06/19 03:40:11;;;;;;;10.97;3.60;;;25.90;61.20;;;26.71;nan;99794.94;4953446;28;20616;-68
2022/06/19 03:42:38;;;;;;;8.50;3.80;;;25.80;61.30;;;26.67;nan;99805.28;4963760;28;20627;-68
2022/06/19 03:45:06;;;;;;;8.00;3.33;;;25.80;61.50;;;26.66;nan;99794.84;4972317;28;20647;-68
2022/06/19 03:47:33;;;;;;;11.40;3.43;;;25.80;61.80;;;26.69;nan;99797.03;4970488;28;20627;-68
2022/06/19 03:50:02;;;;;;;6.23;3.30;;;25.80;62.00;;;26.68;nan;99798.09;4973859;28;20654;-68
2022/06/19 03:52:30;;;;;;;9.20;3.40;;;25.80;62.20;;;26.72;nan;99797.41;4941495;28;21020;-70
2022/06/19 03:54:57;;;;;;;8.40;3.50;;;25.90;62.30;;;26.74;nan;99799.84;4969843;28;20663;-68
2022/06/19 03:57:24;;;;;;;5.13;3.33;;;25.90;62.30;;;26.74;nan;99805.22;4972487;28;20671;-69
2022/06/19 03:59:52;;;;;;;12.50;3.63;;;25.90;62.30;;;26.75;nan;99804.97;4956188;28;20655;-71
2022/06/19 04:02:19;;;;;;;12.97;3.43;;;25.90;62.40;;;26.75;nan;99804.13;4954339;28;20616;-68
2022/06/19 04:04:46;;;;;;;9.50;3.50;;;25.90;62.60;;;26.75;nan;99809.50;4951981;28;21313;-68
2022/06/19 04:07:15;;;;;;;6.63;3.40;;;25.90;62.80;;;26.84;nan;99808.91;4952929;28;21211;-69
2022/06/19 04:09:44;;;;;;;13.10;3.40;;;26.00;62.80;;;26.68;nan;99808.78;4942506;28;20636;-67
2022/06/19 04:12:11;;;;;;;9.90;3.70;;;25.90;63.20;;;26.64;nan;99807.63;4953349;28;21006;-68
2022/06/19 04:14:38;;;;;;;15.37;3.23;;;25.80;63.40;;;26.70;nan;99812.03;4953266;28;20960;-70
2022/06/19 04:17:06;;;;;;;11.33;3.63;;;25.90;63.40;;;26.74;nan;99811.38;4963128;28;20667;-68
2022/06/19 04:19:34;;;;;;;7.30;3.67;;;25.90;63.30;;;26.81;nan;99817.41;4971193;28;21013;-68
2022/06/19 04:22:01;;;;;;;7.60;3.20;;;26.00;63.30;;;26.97;nan;99815.88;4972208;28;20631;-68
2022/06/19 04:24:28;;;;;;;12.20;4.70;;;26.10;63.20;;;27.09;nan;99813.97;4972393;28;20628;-68
2022/06/19 04:26:55;;;;;;;6.63;3.07;;;26.30;62.90;;;27.11;nan;99811.06;4973227;28;21107;-68
2022/06/19 04:29:22;;;;;;;10.70;3.47;;;26.30;62.80;;;27.24;nan;99822.31;4958474;28;21450;-68
2022/06/19 04:31:49;;;;;;;9.17;3.40;;;26.50;62.90;;;27.45;nan;99818.22;4953085;28;20647;-68
2022/06/19 04:34:16;;;;;;;13.63;3.80;;;26.70;62.30;;;27.70;nan;99815.19;4965381;28;21051;-71
2022/06/19 04:36:43;;;;;;;8.17;3.23;;;27.00;62.00;;;27.79;nan;99814.53;4969681;28;20663;-68
2022/06/19 04:39:12;;;;;;;4.80;3.10;;;27.20;61.50;;;27.92;nan;99805.41;4951325;28;20640;-70
2022/06/19 04:41:43;;;;;;;6.77;3.47;;;27.20;61.70;;;28.09;nan;99809.72;4951968;28;20655;-69
2022/06/19 04:44:15;;;;;;;9.03;3.73;;;27.40;61.50;;;28.22;nan;99803.22;4971607;28;21021;-69
2022/06/19 04:46:43;;;;;;;14.13;3.73;;;27.50;61.20;;;28.37;nan;99809.63;4988013;22;20713;-64
2022/06/19 04:49:13;;;;;;;7.03;3.10;;;27.70;61.00;;;28.59;nan;99809.72;4990680;28;20642;-68
2022/06/19 04:51:40;;;;;;;8.20;3.67;;;27.90;60.50;;;28.76;nan;99804.31;4990044;28;20610;-65
2022/06/19 04:54:08;;;;;;;9.73;3.87;;;28.10;60.10;;;28.85;nan;99803.66;4989626;28;20637;-67
2022/06/19 04:56:35;;;;;;;6.27;3.17;;;28.20;59.80;;;28.68;nan;99802.06;4979466;28;20694;-69
2022/06/19 04:59:04;;;;;;;14.07;3.70;;;27.90;60.40;;;28.88;nan;99803.13;4969085;28;21005;-67
2022/06/19 05:01:35;;;;;;;8.67;3.63;;;28.20;60.30;;;29.13;nan;99811.50;4962972;28;20636;-68
2022/06/19 05:04:07;;;;;;;11.60;3.37;;;28.40;59.60;;;29.43;nan;99815.66;4963403;28;20616;-66
2022/06/19 05:06:34;;;;;;;7.77;4.23;;;28.80;59.20;;;29.68;nan;99814.03;4969807;28;20651;-65
2022/06/19 05:09:02;;;;;;;9.50;3.10;;;29.00;58.70;;;29.67;nan;99811.56;4988920;28;21011;-65
2022/06/19 05:11:33;;;;;;;5.47;3.53;;;29.10;57.70;;;28.92;nan;99808.84;4989224;28;20641;-65
2022/06/19 05:14:01;;;;;;;10.30;3.80;;;28.50;58.60;;;29.13;nan;99806.13;4989659;28;20634;-65
2022/06/19 05:16:30;;;;;;;7.40;3.20;;;28.40;58.80;;;29.27;nan;99803.91;4989245;28;20674;-68
2022/06/19 05:18:58;;;;;;;5.47;3.40;;;28.50;58.90;;;29.34;nan;99807.22;4988986;28;20630;-68
2022/06/19 05:21:26;;;;;;;16.47;3.90;;;28.70;58.00;;;29.18;nan;99797.34;4990072;28;20630;-64
2022/06/19 05:23:55;;;;;;;13.67;3.53;;;28.70;57.60;;;29.05;nan;99795.00;4990768;28;20630;-66
2022/06/19 05:26:31;;;;;;;8.93;3.07;;;28.50;57.80;;;29.25;nan;99802.53;4988145;28;20666;-68
2022/06/19 05:28:58;;;;;;;6.93;3.47;;;28.60;57.90;;;29.26;nan;99796.13;4979081;28;21183;-67
2022/06/19 05:31:28;;;;;;;13.20;4.13;;;28.60;57.70;;;29.50;nan;99794.75;4961659;28;20640;-68
2022/06/19 05:33:55;;;;;;;9.70;4.17;;;28.90;57.20;;;29.44;nan;99791.19;4950692;29;20638;-65
2022/06/19 05:36:25;;;;;;;6.90;3.40;;;28.80;57.50;;;29.81;nan;99788.63;4952891;29;20675;-66
2022/06/19 05:38:52;;;;;;;11.83;4.20;;;29.10;57.00;;;29.93;nan;99797.34;4982494;28;20638;-68
2022/06/19 05:41:19;;;;;;;10.20;3.77;;;29.30;56.50;;;30.15;nan;99792.69;4990308;28;21016;-67
2022/06/19 05:43:50;;;;;;;9.47;3.50;;;29.50;56.50;;;30.35;nan;99798.22;4976460;28;20635;-66
2022/06/19 05:46:20;;;;;;;14.70;3.77;;;29.80;55.90;;;30.87;nan;99798.31;4970173;28;20667;-68
2022/06/19 05:48:48;;;;;;;14.93;4.90;;;30.20;55.60;;;31.28;nan;99794.66;4975717;28;20642;-66
2022/06/19 05:51:22;;;;;;;13.43;4.10;;;30.70;54.90;;;31.29;nan;99796.31;4991143;28;20641;-67
2022/06/19 05:53:55;;;;;;;7.80;3.63;;;30.80;54.50;;;31.38;nan;99788.50;4985529;28;20643;-67
2022/06/19 05:56:24;;;;;;;7.10;4.30;;;30.80;54.40;;;31.77;nan;99800.47;4978379;28;20678;-66
2022/06/19 05:58:51;;;;;;;8.27;4.47;;;31.10;54.60;;;32.04;nan;99802.94;4966860;28;20639;-65
2022/06/19 06:01:20;;;;;;;5.83;3.70;;;31.40;54.40;;;32.53;nan;99813.97;4987370;28;20989;-66
2022/06/19 06:03:48;;;;;;;9.40;5.80;;;31.90;53.50;;;32.92;nan;99806.03;4975430;28;20634;-66
2022/06/19 06:06:22;;;;;;;7.70;4.83;;;32.30;52.90;;;32.94;nan;99804.69;4974982;28;20654;-66
2022/06/19 06:08:49;;;;;;;11.80;4.87;;;32.30;53.00;;;33.18;nan;99802.97;4975138;28;20649;-66
2022/06/19 06:11:18;;;;;;;9.63;5.23;;;32.50;52.70;;;33.26;nan;99797.00;4974965;28;20634;-66
2022/06/19 06:13:45;;;;;;;20.93;5.47;;;32.60;52.60;;;33.82;nan;99813.69;4978149;28;20990;-63
2022/06/19 06:16:18;;;;;;;7.03;5.60;;;33.10;52.30;;;33.63;nan;99808.16;4992988;28;20682;-67
2022/06/19 06:18:46;;;;;;;11.50;5.17;;;33.00;52.10;;;34.11;nan;99802.97;4977619;28;21263;-66
2022/06/19 06:21:17;;;;;;;8.33;5.27;;;33.40;52.10;;;34.23;nan;99808.78;4962961;28;20665;-64
2022/06/19 06:23:45;;;;;;;10.40;5.53;;;33.50;51.70;;;34.50;nan;99811.81;4976663;28;20696;-66
2022/06/19 06:26:17;;;;;;;10.20;5.23;;;33.90;51.10;;;34.85;nan;99811.44;4992898;28;21252;-64
2022/06/19 06:28:48;;;;;;;18.33;5.57;;;34.20;51.50;;;35.09;nan;99804.13;4977964;28;20620;-67
2022/06/19 06:31:17;;;;;;;18.57;5.77;;;34.30;50.70;;;35.20;nan;99799.38;4974442;28;20634;-67
2022/06/19 06:33:44;;;;;;;7.40;5.60;;;34.70;49.90;;;35.42;nan;99790.63;4975137;28;20627;-66
2022/06/19 06:36:11;;;;;;;8.80;5.97;;;34.80;49.80;;;35.98;nan;99804.22;4972520;28;20769;-68
2022/06/19 06:38:39;;;;;;;7.70;5.37;;;35.30;49.50;;;36.35;nan;99804.94;4972066;28;21216;-64
2022/06/19 06:41:09;;;;;;;8.33;5.83;;;35.70;48.90;;;36.96;nan;99806.50;4973415;28;20627;-65
2022/06/19 06:43:39;;;;;;;9.00;5.97;;;36.30;48.30;;;37.64;nan;99803.66;4972472;28;21008;-65
2022/06/19 06:46:13;;;;;;;12.97;6.70;;;36.80;48.00;;;37.74;nan;99804.22;4973293;28;20659;-66
2022/06/19 06:48:41;;;;;;;7.80;6.00;;;37.10;47.40;;;38.13;nan;99806.28;4981415;28;21269;-66
2022/06/19 06:51:12;;;;;;;7.90;5.97;;;37.50;46.80;;;38.35;nan;99809.03;4980712;28;20647;-66
2022/06/19 06:53:39;;;;;;;15.80;6.20;;;37.60;46.70;;;38.75;nan;99805.22;4972239;28;20618;-68
2022/06/19 06:56:08;;;;;;;7.47;5.00;;;37.90;46.40;;;39.18;nan;99810.00;4972617;28;20662;-64
2022/06/19 06:58:36;;;;;;;7.10;5.80;;;38.40;46.00;;;40.23;nan;99800.38;4974024;28;21043;-64
2022/06/19 07:01:18;;;;;;;9.83;5.80;;;39.30;45.60;;;39.82;nan;99800.09;4970303;28;21002;-64
2022/06/19 07:03:47;;;;;;;6.53;5.37;;;39.30;44.90;;;39.80;nan;99816.81;4971543;28;20643;-68
2022/06/19 07:06:15;;;;;;;10.60;5.87;;;39.10;44.80;;;40.73;nan;99817.72;4973476;28;20651;-66
2022/06/19 07:08:42;;;;;;;13.77;6.17;;;39.80;44.60;;;39.93;nan;99818.53;4979246;28;21010;-66
2022/06/19 07:11:17;;;;;;;9.80;5.77;;;39.20;44.70;;;40.95;nan;99819.44;4977453;28;20646;-68
2022/06/19 07:13:45;;;;;;;12.50;6.10;;;39.90;44.70;;;41.96;nan;99824.47;4971151;28;20626;-66
2022/06/19 07:16:12;;;;;;;13.40;5.80;;;40.80;44.20;;;42.34;nan;99827.03;4971605;28;20670;-66
2022/06/19 07:18:39;;;;;;;6.93;5.37;;;41.40;44.20;;;;;;4986377;28;21201;-65
2022/06/19 07:21:05;;;;;;;9.33;6.70;;;41.40;43.00;;;;;;4979070;28;21230;-64
2022/06/19 07:23:34;;;;;;;8.30;6.70;;;40.80;43.00;;;;;;4970913;28;20630;-67
2022/06/19 07:26:00;;;;;;;6.60;6.00;;;40.80;43.00;;;;;;4977350;28;20661;-65
2022/06/19 07:28:29;;;;;;;6.20;5.60;;;41.70;42.50;;;;;;4968055;28;21036;-63
2022/06/19 07:30:56;;;;;;;8.73;6.80;;;41.90;42.10;;;;;;4972688;28;20639;-64
2022/06/19 07:33:23;;;;;;;11.37;6.60;;;42.80;41.70;;;;;;4978030;28;20635;-64
2022/06/19 07:35:50;;;;;;;7.77;6.30;;;41.30;42.70;;;;;;4993832;28;20654;-66
2022/06/19 07:38:17;;;;;;;11.67;6.63;;;41.00;42.40;;;;;;4971896;28;21034;-66
2022/06/19 07:40:44;;;;;;;7.13;6.40;;;41.10;42.90;;;;;;4972884;28;20701;-65
2022/06/19 07:43:14;;;;;;;12.73;6.30;;;42.20;41.80;;;;;;4984344;28;21089;-66
2022/06/19 07:45:41;;;;;;;7.83;6.30;;;41.60;42.00;;;;;;4980427;28;20670;-65
2022/06/19 07:50:56;;;;;;;8.53;5.80;;;42.50;41.80;;;;;;4970837;28;20730;-66
2022/06/19 07:53:23;;;;;;;7.70;7.00;;;41.80;41.70;;;;;;4972854;28;20629;-66
2022/06/19 07:55:50;;;;;;;7.90;6.40;;;41.60;42.50;;;;;;4970631;28;20666;-67
2022/06/19 07:58:16;;;;;;;7.63;6.90;;;41.00;42.40;;;;;;4986109;28;20695;-65
2022/06/19 08:00:43;;;;;;;7.83;7.00;;;40.30;43.00;;;;;;4971180;28;20635;-63
2022/06/19 08:03:10;;;;;;;9.27;7.10;;;40.20;43.40;;;;;;4969349;28;21289;-65
2022/06/19 08:05:38;;;;;;;7.57;6.87;;;40.60;43.40;;;;;;4971906;28;21385;-64
2022/06/19 08:08:12;;;;;;;10.50;7.70;;;40.90;43.10;;;;;;4971563;28;21238;-65
2022/06/19 08:10:42;;;;;;;6.83;5.90;;;41.10;42.90;;;;;;4974702;28;20685;-66
2022/06/19 08:13:14;;;;;;;6.67;6.07;;;41.20;42.90;;;;;;4974228;28;20657;-65
2022/06/19 08:15:41;;;;;;;8.53;7.00;;;41.30;42.50;;;;;;4971786;28;20966;-66
2022/06/19 08:18:09;;;;;;;8.80;6.90;;;40.70;43.00;;;;;;4977631;28;20664;-64
2022/06/19 08:20:36;;;;;;;8.07;6.37;;;40.70;43.10;;;;;;4990553;28;21166;-66
2022/06/19 08:23:03;;;;;;;6.53;5.80;;;40.60;42.90;;;;;;4955437;28;20639;-64
2022/06/19 08:25:30;;;;;;;10.30;6.27;;;40.90;42.40;;;;;;4959366;28;21246;-65
2022/06/19 08:27:57;;;;;;;6.80;6.20;;;40.90;40.90;;;;;;4971957;28;20713;-68
2022/06/19 08:30:27;;;;;;;6.10;5.60;;;40.80;40.40;;;;;;4976239;28;20645;-65
2022/06/19 08:33:02;;;;;;;7.03;4.70;;;40.70;40.30;;;;;;4971827;28;20690;-65
2022/06/19 08:35:32;;;;;;;9.00;5.83;;;40.30;40.70;;;;;;4978299;28;20713;-67
2022/06/19 08:38:04;;;;;;;6.20;5.70;;;40.00;40.60;;;;;;4972725;28;20663;-66
2022/06/19 08:40:50;;;;;;;8.53;5.87;;;39.70;40.80;;;;;;4971027;28;20658;-65
2022/06/19 08:43:27;;;;;;;6.70;5.37;;;39.50;41.10;;;;;;4971718;28;20631;-65
2022/06/19 08:46:15;;;;;;;7.73;5.57;;;39.50;41.50;;;;;;4970882;28;20666;-67
2022/06/19 08:49:06;;;;;;;11.00;5.83;;;39.50;41.40;;;;;;4972826;28;20714;-65
2022/06/19 08:51:52;;;;;;;7.57;5.57;;;39.50;41.30;;;;;;4971555;28;20647;-65
2022/06/19 08:54:45;;;;;;;9.37;5.90;;;39.50;41.40;;;;;;4971835;28;20639;-64
2022/06/19 08:57:54;;;;;;;7.80;5.83;;;39.30;41.60;;;;;;4973095;28;21078;-65
2022/06/19 09:00:30;;;;;;;7.67;6.23;;;39.10;41.90;;;;;;4920845;29;20645;-65
2022/06/19 09:03:06;;;;;;;6.40;5.83;;;39.10;42.10;;;;;;4959707;28;21224;-66
2022/06/19 09:05:45;;;;;;;6.37;5.77;;;38.90;42.20;;;;;;4969438;28;20750;-66
2022/06/19 09:08:36;;;;;;;7.57;5.43;;;39.00;42.30;;;;;;4967347;28;20757;-64
2022/06/19 09:11:21;;;;;;;7.60;6.17;;;39.00;42.30;;;;;;4969658;28;20650;-65
2022/06/19 09:13:51;;;;;;;8.93;6.07;;;38.80;42.70;;;;;;4982696;28;20642;-64
2022/06/19 09:16:32;;;;;;;9.07;7.00;;;38.80;42.50;;;;;;4965931;28;20662;-65
2022/06/19 09:19:18;;;;;;;6.93;6.23;;;38.80;42.60;;;;;;4972030;28;20666;-66
2022/06/19 09:21:58;;;;;;;6.77;6.10;;;38.80;42.70;;;;;;4970833;28;20710;-64
2022/06/19 09:24:51;;;;;;;10.00;5.83;;;38.80;42.80;;;;;;4970317;28;20607;-65
2022/06/19 09:27:25;;;;;;;10.93;5.77;;;38.80;42.60;;;;;;4969296;28;21247;-66
2022/06/19 09:30:07;;;;;;;8.07;6.03;;;38.60;42.60;;;;;;4965551;28;20650;-66
2022/06/19 09:32:42;;;;;;;7.23;6.50;;;38.40;42.60;;;;;;4964671;28;20673;-64
2022/06/19 09:35:35;;;;;;;8.13;6.27;;;38.30;42.90;;;;;;4966736;28;20650;-66
2022/06/19 09:38:21;;;;;;;8.33;7.37;;;38.10;42.90;;;;;;4959287;28;21136;-65
2022/06/19 09:40:54;;;;;;;10.47;6.97;;;38.00;43.10;;;;;;4982591;28;20975;-68
2022/06/19 09:43:36;;;;;;;16.43;5.60;;;38.00;43.30;;;;;;4957699;28;20628;-67
2022/06/19 09:46:16;;;;;;;6.47;5.80;;;38.00;43.30;;;;;;4962736;28;20750;-64
2022/06/19 09:49:06;;;;;;;9.47;6.13;;;38.00;43.30;;;;;;4971754;28;20673;-64
2022/06/19 09:51:54;;;;;;;6.77;5.67;;;37.90;43.10;;;;;;4972031;28;20635;-66
2022/06/19 09:54:40;;;;;;;9.40;6.50;;;37.90;43.40;;;;;;4971812;28;20658;-67
2022/06/19 09:57:13;;;;;;;8.03;6.17;;;38.10;43.50;;;;;;4979358;28;20662;-66
2022/06/19 10:00:06;;;;;;;8.13;6.50;;;38.10;43.50;;;;;;4990721;28;20701;-66
2022/06/19 10:02:46;;;;;;;7.57;6.60;;;38.10;43.50;;;;;;4975088;28;20726;-64
2022/06/19 10:05:31;;;;;;;6.77;6.10;;;38.30;43.70;;;;;;4964875;28;21048;-65
2022/06/19 10:08:09;;;;;;;14.00;5.83;;;38.30;43.60;;;;;;4971107;28;20645;-66
2022/06/19 10:10:58;;;;;;;8.30;6.67;;;38.20;43.80;;;;;;4968484;28;20650;-63
2022/06/19 10:13:39;;;;;;;6.47;5.83;;;38.00;43.80;;;;;;4959224;28;20619;-64
2022/06/19 10:16:44;;;;;;;10.03;6.77;;;37.90;44.00;;;;;;4951267;28;20735;-64
2022/06/19 10:19:25;;;;;;;7.57;6.27;;;37.90;44.20;;;;;;4969038;28;20675;-65
2022/06/19 10:22:15;;;;;;;8.63;6.67;;;37.80;44.50;;;;;;4971097;28;21450;-66
2022/06/19 10:24:53;;;;;;;16.90;6.80;;;37.70;44.30;;;;;;4971931;28;20711;-64
2022/06/19 10:27:22;;;;;;;10.70;7.03;;;37.60;44.50;;;;;;4970991;28;20737;-63
2022/06/19 10:29:58;;;;;;;8.60;6.67;;;37.80;44.70;;;;;;4985848;28;20646;-64
2022/06/19 10:32:45;;;;;;;8.33;6.90;;;37.90;44.20;;;;;;4989556;28;20609;-64
2022/06/19 10:35:25;;;;;;;10.20;6.90;;;38.00;44.10;;;;;;4978165;28;20867;-66
2022/06/19 10:38:00;;;;;;;7.57;6.40;;;37.90;44.00;;;;;;4977438;28;20744;-65
2022/06/19 10:40:46;;;;;;;8.90;5.80;;;37.80;44.20;;;;;;4971392;28;20690;-65
2022/06/19 10:43:18;;;;;;;7.93;6.90;;;37.60;44.40;;;38.57;nan;99792.59;4968445;28;20635;-66
2022/06/19 10:45:56;;;;;;;7.90;7.00;;;37.70;44.70;;;38.50;nan;99795.00;4987782;22;20687;-66
2022/06/19 10:48:39;;;;;;;15.43;6.10;;;37.60;44.40;;;38.40;nan;99797.97;4992361;28;20635;-66
2022/06/19 10:51:24;;;;;;;10.93;8.43;;;37.60;44.40;;;38.44;nan;99795.44;4986615;28;20660;-66
2022/06/19 10:54:50;;;;;;;10.63;6.80;;;37.40;44.30;;;38.52;nan;99802.84;4991607;28;20664;-66
2022/06/19 10:57:47;;;;;;;14.50;6.90;;;37.40;44.40;;;38.51;nan;99806.69;4951370;29;20691;-66
2022/06/19 11:00:14;;;;;;;8.57;6.60;;;37.50;44.50;;;38.57;nan;99808.16;4944855;28;20648;-63
2022/06/19 11:06:15;;;;;;;12.00;6.77;;;37.30;44.40;;;38.07;nan;99793.94;4959316;28;21294;-67
2022/06/19 11:08:57;;;;;;;8.07;6.83;;;37.10;44.50;;;38.09;nan;99794.41;4972433;28;21001;-66
2022/06/19 11:11:24;;;;;;;7.47;5.67;;;37.10;44.70;;;37.94;nan;99802.97;4972889;28;20623;-66
2022/06/19 11:14:33;;;;;;;13.50;6.70;;;37.00;45.00;;;37.96;nan;99790.66;4963629;28;20647;-67
2022/06/19 11:17:10;;;;;;;8.20;6.80;;;36.90;45.20;;;38.00;nan;99786.19;4968724;28;20680;-66
2022/06/19 11:19:45;;;;;;;10.77;6.67;;;37.00;45.40;;;38.10;nan;99776.16;4967408;28;21157;-66
2022/06/19 11:22:36;;;;;;;8.57;6.83;;;37.10;45.40;;;38.14;nan;99780.69;4952995;28;20646;-66
2022/06/19 11:25:22;;;;;;;11.20;6.80;;;37.20;45.20;;;37.99;nan;99781.84;4952958;28;20983;-68
2022/06/19 11:28:11;;;;;;;7.60;6.70;;;37.10;45.00;;;37.93;nan;99774.94;4935736;29;21242;-66
2022/06/19 11:30:50;;;;;;;5.87;5.40;;;36.90;45.30;;;37.73;nan;99766.44;4950139;29;20628;-68
2022/06/19 11:33:28;;;;;;;13.03;6.90;;;36.80;45.40;;;37.79;nan;99771.47;4944669;28;21053;-66